sensor_id;sensor_type;location;lat;lon;timestamp;P1;durP1;ratioP1;P2;durP2;ratioP2
78887;SDS011;68276;49.326;8.690;2023-08-17T00:01:28;6.18;;;1.60;;
78887;SDS011;68276;49.326;8.690;2023-08-17T00:04:52;3.83;;;1.40;;
78887;SDS011;68276;49.326;8.690;2023-08-17T00:08:15;4.38;;;1.40;;
78887;SDS011;68276;49.326;8.690;2023-08-17T00:11:39;5.57;;;1.45;;
78887;SDS011;68276;49.326;8.690;2023-08-17T00:15:03;5.78;;;1.50;;
78887;SDS011;68276;49.326;8.690;2023-08-17T00:18:27;6.00;;;1.50;;
78887;SDS011;68276;49.326;8.690;2023-08-17T00:21:51;5.93;;;1.58;;
78887;SDS011;68276;49.326;8.690;2023-08-17T00:25:15;4.57;;;1.70;;
78887;SDS011;68276;49.326;8.690;2023-08-17T00:28:39;5.68;;;1.58;;
78887;SDS011;68276;49.326;8.690;2023-08-17T00:32:03;6.05;;;1.48;;
78887;SDS011;68276;49.326;8.690;2023-08-17T00:35:27;5.45;;;1.42;;
78887;SDS011;68276;49.326;8.690;2023-08-17T00:38:51;4.53;;;1.50;;
78887;SDS011;68276;49.326;8.690;2023-08-17T00:42:15;4.88;;;1.63;;
78887;SDS011;68276;49.326;8.690;2023-08-17T00:45:39;7.47;;;2.00;;
78887;SDS011;68276;49.326;8.690;2023-08-17T00:49:04;8.80;;;2.30;;
78887;SDS011;68276;49.326;8.690;2023-08-17T00:52:29;8.95;;;2.05;;
78887;SDS011;68276;49.326;8.690;2023-08-17T00:55:55;5.90;;;1.65;;
78887;SDS011;68276;49.326;8.690;2023-08-17T00:59:20;7.00;;;1.40;;
78887;SDS011;68276;49.326;8.690;2023-08-17T01:02:44;4.75;;;1.42;;
78887;SDS011;68276;49.326;8.690;2023-08-17T01:06:09;4.35;;;1.60;;
78887;SDS011;68276;49.326;8.690;2023-08-17T01:09:33;5.60;;;1.58;;
78887;SDS011;68276;49.326;8.690;2023-08-17T01:17:22;4.03;;;1.30;;
78887;SDS011;68276;49.326;8.690;2023-08-17T01:20:52;4.88;;;1.30;;
78887;SDS011;68276;49.326;8.690;2023-08-17T01:24:18;4.32;;;1.20;;
78887;SDS011;68276;49.326;8.690;2023-08-17T01:27:45;5.10;;;1.40;;
78887;SDS011;68276;49.326;8.690;2023-08-17T01:34:39;4.05;;;1.05;;
78887;SDS011;68276;49.326;8.690;2023-08-17T01:38:09;3.88;;;1.30;;
78887;SDS011;68276;49.326;8.690;2023-08-17T01:41:36;4.68;;;1.20;;
78887;SDS011;68276;49.326;8.690;2023-08-17T01:45:01;3.90;;;1.23;;
78887;SDS011;68276;49.326;8.690;2023-08-17T01:48:25;3.80;;;1.17;;
78887;SDS011;68276;49.326;8.690;2023-08-17T01:51:49;3.95;;;1.23;;
78887;SDS011;68276;49.326;8.690;2023-08-17T01:55:16;6.80;;;1.40;;
78887;SDS011;68276;49.326;8.690;2023-08-17T01:58:40;5.60;;;1.60;;
78887;SDS011;68276;49.326;8.690;2023-08-17T02:02:04;4.70;;;1.40;;
78887;SDS011;68276;49.326;8.690;2023-08-17T02:05:28;3.40;;;1.20;;
78887;SDS011;68276;49.326;8.690;2023-08-17T02:08:51;5.72;;;1.17;;
78887;SDS011;68276;49.326;8.690;2023-08-17T02:12:15;4.68;;;1.25;;
78887;SDS011;68276;49.326;8.690;2023-08-17T02:15:40;3.60;;;1.30;;
78887;SDS011;68276;49.326;8.690;2023-08-17T02:19:04;3.42;;;1.30;;
78887;SDS011;68276;49.326;8.690;2023-08-17T02:22:29;4.28;;;1.50;;
78887;SDS011;68276;49.326;8.690;2023-08-17T02:25:56;5.10;;;1.50;;
78887;SDS011;68276;49.326;8.690;2023-08-17T02:29:20;6.40;;;1.70;;
78887;SDS011;68276;49.326;8.690;2023-08-17T02:32:44;5.30;;;1.75;;
78887;SDS011;68276;49.326;8.690;2023-08-17T02:36:08;7.57;;;1.58;;
78887;SDS011;68276;49.326;8.690;2023-08-17T02:39:32;5.55;;;1.58;;
78887;SDS011;68276;49.326;8.690;2023-08-17T02:42:56;7.38;;;1.75;;
78887;SDS011;68276;49.326;8.690;2023-08-17T02:46:20;9.82;;;1.80;;
78887;SDS011;68276;49.326;8.690;2023-08-17T02:49:44;5.07;;;1.40;;
78887;SDS011;68276;49.326;8.690;2023-08-17T02:53:07;6.35;;;1.60;;
78887;SDS011;68276;49.326;8.690;2023-08-17T02:56:32;5.35;;;1.60;;
78887;SDS011;68276;49.326;8.690;2023-08-17T02:59:56;6.93;;;1.48;;
78887;SDS011;68276;49.326;8.690;2023-08-17T03:03:20;3.95;;;1.17;;
78887;SDS011;68276;49.326;8.690;2023-08-17T03:06:44;6.75;;;2.88;;
78887;SDS011;68276;49.326;8.690;2023-08-17T03:10:07;7.22;;;1.67;;
78887;SDS011;68276;49.326;8.690;2023-08-17T03:13:32;5.68;;;1.80;;
78887;SDS011;68276;49.326;8.690;2023-08-17T03:16:57;5.90;;;1.92;;
78887;SDS011;68276;49.326;8.690;2023-08-17T03:20:21;3.78;;;1.50;;
78887;SDS011;68276;49.326;8.690;2023-08-17T03:23:45;5.32;;;1.60;;
78887;SDS011;68276;49.326;8.690;2023-08-17T03:27:09;4.70;;;1.40;;
78887;SDS011;68276;49.326;8.690;2023-08-17T03:30:33;8.02;;;1.70;;
78887;SDS011;68276;49.326;8.690;2023-08-17T03:33:57;4.60;;;1.80;;
78887;SDS011;68276;49.326;8.690;2023-08-17T03:37:21;2.78;;;1.00;;
78887;SDS011;68276;49.326;8.690;2023-08-17T03:40:46;5.38;;;1.33;;
78887;SDS011;68276;49.326;8.690;2023-08-17T03:44:10;3.58;;;1.13;;
78887;SDS011;68276;49.326;8.690;2023-08-17T03:47:34;8.50;;;1.77;;
78887;SDS011;68276;49.326;8.690;2023-08-17T03:50:58;6.13;;;1.70;;
78887;SDS011;68276;49.326;8.690;2023-08-17T03:54:21;5.55;;;1.90;;
78887;SDS011;68276;49.326;8.690;2023-08-17T03:57:45;5.38;;;1.55;;
78887;SDS011;68276;49.326;8.690;2023-08-17T04:01:09;5.45;;;1.30;;
78887;SDS011;68276;49.326;8.690;2023-08-17T04:04:33;4.68;;;1.95;;
78887;SDS011;68276;49.326;8.690;2023-08-17T04:07:58;4.32;;;1.50;;
78887;SDS011;68276;49.326;8.690;2023-08-17T04:11:22;6.65;;;1.90;;
78887;SDS011;68276;49.326;8.690;2023-08-17T04:14:46;5.38;;;1.70;;
78887;SDS011;68276;49.326;8.690;2023-08-17T04:18:10;9.38;;;1.63;;
78887;SDS011;68276;49.326;8.690;2023-08-17T04:21:34;6.90;;;1.60;;
78887;SDS011;68276;49.326;8.690;2023-08-17T04:24:58;6.03;;;1.60;;
78887;SDS011;68276;49.326;8.690;2023-08-17T04:28:22;6.80;;;1.88;;
78887;SDS011;68276;49.326;8.690;2023-08-17T04:31:45;5.60;;;1.90;;
78887;SDS011;68276;49.326;8.690;2023-08-17T04:35:15;6.05;;;1.60;;
78887;SDS011;68276;49.326;8.690;2023-08-17T04:38:39;5.88;;;2.03;;
78887;SDS011;68276;49.326;8.690;2023-08-17T04:42:03;5.57;;;1.83;;
78887;SDS011;68276;49.326;8.690;2023-08-17T04:45:27;6.45;;;1.70;;
78887;SDS011;68276;49.326;8.690;2023-08-17T04:48:51;5.70;;;1.63;;
78887;SDS011;68276;49.326;8.690;2023-08-17T04:52:15;6.63;;;1.80;;
78887;SDS011;68276;49.326;8.690;2023-08-17T04:55:39;5.00;;;1.58;;
78887;SDS011;68276;49.326;8.690;2023-08-17T04:59:03;6.47;;;1.80;;
78887;SDS011;68276;49.326;8.690;2023-08-17T05:02:28;5.75;;;1.70;;
78887;SDS011;68276;49.326;8.690;2023-08-17T05:05:52;6.80;;;1.90;;
78887;SDS011;68276;49.326;8.690;2023-08-17T05:09:16;7.80;;;2.00;;
78887;SDS011;68276;49.326;8.690;2023-08-17T05:12:40;11.77;;;3.13;;
78887;SDS011;68276;49.326;8.690;2023-08-17T05:16:04;8.25;;;2.55;;
78887;SDS011;68276;49.326;8.690;2023-08-17T05:19:28;5.82;;;2.03;;
78887;SDS011;68276;49.326;8.690;2023-08-17T05:22:52;7.28;;;1.90;;
78887;SDS011;68276;49.326;8.690;2023-08-17T05:26:16;6.82;;;1.77;;
78887;SDS011;68276;49.326;8.690;2023-08-17T05:29:40;7.60;;;2.30;;
78887;SDS011;68276;49.326;8.690;2023-08-17T05:33:04;6.85;;;2.03;;
78887;SDS011;68276;49.326;8.690;2023-08-17T05:36:28;9.73;;;2.20;;
78887;SDS011;68276;49.326;8.690;2023-08-17T05:39:52;7.13;;;2.13;;
78887;SDS011;68276;49.326;8.690;2023-08-17T05:43:23;6.30;;;2.30;;
78887;SDS011;68276;49.326;8.690;2023-08-17T05:46:47;7.85;;;2.17;;
78887;SDS011;68276;49.326;8.690;2023-08-17T05:50:11;7.85;;;2.20;;
78887;SDS011;68276;49.326;8.690;2023-08-17T05:53:35;8.07;;;2.97;;
78887;SDS011;68276;49.326;8.690;2023-08-17T05:56:58;5.25;;;2.10;;
78887;SDS011;68276;49.326;8.690;2023-08-17T06:00:22;9.18;;;2.20;;
78887;SDS011;68276;49.326;8.690;2023-08-17T06:03:46;7.45;;;2.28;;
78887;SDS011;68276;49.326;8.690;2023-08-17T06:07:12;7.88;;;2.22;;
78887;SDS011;68276;49.326;8.690;2023-08-17T06:10:36;8.60;;;2.30;;
78887;SDS011;68276;49.326;8.690;2023-08-17T06:14:00;5.72;;;2.08;;
78887;SDS011;68276;49.326;8.690;2023-08-17T06:17:23;7.38;;;2.50;;
78887;SDS011;68276;49.326;8.690;2023-08-17T06:20:47;7.47;;;2.08;;
78887;SDS011;68276;49.326;8.690;2023-08-17T06:24:11;6.90;;;2.40;;
78887;SDS011;68276;49.326;8.690;2023-08-17T06:27:35;7.70;;;2.92;;
78887;SDS011;68276;49.326;8.690;2023-08-17T06:30:59;8.80;;;2.90;;
78887;SDS011;68276;49.326;8.690;2023-08-17T06:34:23;15.18;;;5.05;;
78887;SDS011;68276;49.326;8.690;2023-08-17T06:37:48;10.65;;;4.57;;
78887;SDS011;68276;49.326;8.690;2023-08-17T06:41:12;11.30;;;4.93;;
78887;SDS011;68276;49.326;8.690;2023-08-17T06:44:36;11.55;;;5.15;;
78887;SDS011;68276;49.326;8.690;2023-08-17T06:48:00;12.45;;;5.40;;
78887;SDS011;68276;49.326;8.690;2023-08-17T06:51:24;12.52;;;5.65;;
78887;SDS011;68276;49.326;8.690;2023-08-17T06:54:48;12.68;;;5.97;;
78887;SDS011;68276;49.326;8.690;2023-08-17T06:58:12;13.30;;;6.10;;
78887;SDS011;68276;49.326;8.690;2023-08-17T07:01:36;13.57;;;6.45;;
78887;SDS011;68276;49.326;8.690;2023-08-17T07:05:00;12.95;;;5.80;;
78887;SDS011;68276;49.326;8.690;2023-08-17T07:08:24;11.82;;;5.55;;
78887;SDS011;68276;49.326;8.690;2023-08-17T07:11:49;12.35;;;5.43;;
78887;SDS011;68276;49.326;8.690;2023-08-17T07:15:13;16.70;;;6.57;;
78887;SDS011;68276;49.326;8.690;2023-08-17T07:18:37;11.25;;;5.38;;
78887;SDS011;68276;49.326;8.690;2023-08-17T07:22:01;12.38;;;6.75;;
78887;SDS011;68276;49.326;8.690;2023-08-17T07:25:25;12.32;;;6.45;;
78887;SDS011;68276;49.326;8.690;2023-08-17T07:28:49;13.02;;;5.93;;
78887;SDS011;68276;49.326;8.690;2023-08-17T07:32:13;12.43;;;5.40;;
78887;SDS011;68276;49.326;8.690;2023-08-17T07:35:37;14.75;;;6.80;;
78887;SDS011;68276;49.326;8.690;2023-08-17T07:39:01;15.23;;;6.88;;
78887;SDS011;68276;49.326;8.690;2023-08-17T07:42:25;16.70;;;8.00;;
78887;SDS011;68276;49.326;8.690;2023-08-17T07:45:55;16.40;;;6.93;;
78887;SDS011;68276;49.326;8.690;2023-08-17T07:49:19;15.55;;;6.45;;
78887;SDS011;68276;49.326;8.690;2023-08-17T07:52:44;12.80;;;6.18;;
78887;SDS011;68276;49.326;8.690;2023-08-17T07:56:08;15.23;;;6.43;;
78887;SDS011;68276;49.326;8.690;2023-08-17T07:59:32;16.95;;;7.03;;
78887;SDS011;68276;49.326;8.690;2023-08-17T08:02:56;15.57;;;7.32;;
78887;SDS011;68276;49.326;8.690;2023-08-17T08:06:20;16.92;;;6.05;;
78887;SDS011;68276;49.326;8.690;2023-08-17T08:09:44;13.88;;;5.68;;
78887;SDS011;68276;49.326;8.690;2023-08-17T08:13:08;15.80;;;5.88;;
78887;SDS011;68276;49.326;8.690;2023-08-17T08:16:32;13.43;;;5.68;;
78887;SDS011;68276;49.326;8.690;2023-08-17T08:19:56;15.45;;;5.75;;
78887;SDS011;68276;49.326;8.690;2023-08-17T08:23:20;13.38;;;6.47;;
78887;SDS011;68276;49.326;8.690;2023-08-17T08:26:44;13.18;;;5.88;;
78887;SDS011;68276;49.326;8.690;2023-08-17T08:30:08;14.52;;;5.72;;
78887;SDS011;68276;49.326;8.690;2023-08-17T08:33:32;11.90;;;6.28;;
78887;SDS011;68276;49.326;8.690;2023-08-17T08:36:56;12.60;;;5.90;;
78887;SDS011;68276;49.326;8.690;2023-08-17T08:40:27;14.10;;;5.75;;
78887;SDS011;68276;49.326;8.690;2023-08-17T08:43:51;15.00;;;6.43;;
78887;SDS011;68276;49.326;8.690;2023-08-17T08:47:16;13.93;;;6.03;;
78887;SDS011;68276;49.326;8.690;2023-08-17T08:50:41;15.02;;;6.25;;
78887;SDS011;68276;49.326;8.690;2023-08-17T08:54:10;16.38;;;6.80;;
78887;SDS011;68276;49.326;8.690;2023-08-17T08:57:38;15.15;;;6.07;;
78887;SDS011;68276;49.326;8.690;2023-08-17T09:01:03;13.63;;;6.60;;
78887;SDS011;68276;49.326;8.690;2023-08-17T09:04:28;15.07;;;6.28;;
78887;SDS011;68276;49.326;8.690;2023-08-17T09:07:52;17.20;;;6.32;;
78887;SDS011;68276;49.326;8.690;2023-08-17T09:11:17;13.00;;;6.28;;
78887;SDS011;68276;49.326;8.690;2023-08-17T09:14:41;17.35;;;6.72;;
78887;SDS011;68276;49.326;8.690;2023-08-17T09:18:05;12.35;;;5.80;;
78887;SDS011;68276;49.326;8.690;2023-08-17T09:21:31;14.38;;;6.20;;
78887;SDS011;68276;49.326;8.690;2023-08-17T09:25:04;13.05;;;6.57;;
78887;SDS011;68276;49.326;8.690;2023-08-17T09:28:35;11.18;;;6.22;;
78887;SDS011;68276;49.326;8.690;2023-08-17T09:32:06;11.43;;;5.35;;
78887;SDS011;68276;49.326;8.690;2023-08-17T09:35:31;11.23;;;5.63;;
78887;SDS011;68276;49.326;8.690;2023-08-17T09:38:55;11.40;;;6.13;;
78887;SDS011;68276;49.326;8.690;2023-08-17T09:42:20;13.15;;;6.10;;
78887;SDS011;68276;49.326;8.690;2023-08-17T09:45:48;11.98;;;4.97;;
78887;SDS011;68276;49.326;8.690;2023-08-17T09:49:12;13.63;;;5.20;;
78887;SDS011;68276;49.326;8.690;2023-08-17T09:52:38;11.50;;;5.38;;
78887;SDS011;68276;49.326;8.690;2023-08-17T09:56:02;11.63;;;4.90;;
78887;SDS011;68276;49.326;8.690;2023-08-17T09:59:28;10.05;;;4.25;;
78887;SDS011;68276;49.326;8.690;2023-08-17T10:02:52;7.82;;;3.50;;
78887;SDS011;68276;49.326;8.690;2023-08-17T10:06:19;11.18;;;4.50;;
78887;SDS011;68276;49.326;8.690;2023-08-17T10:09:48;9.55;;;4.28;;
78887;SDS011;68276;49.326;8.690;2023-08-17T10:16:53;11.48;;;4.10;;
78887;SDS011;68276;49.326;8.690;2023-08-17T10:20:26;7.72;;;3.65;;
78887;SDS011;68276;49.326;8.690;2023-08-17T10:23:56;9.43;;;4.22;;
78887;SDS011;68276;49.326;8.690;2023-08-17T10:27:22;14.32;;;4.75;;
78887;SDS011;68276;49.326;8.690;2023-08-17T10:30:47;8.32;;;3.65;;
78887;SDS011;68276;49.326;8.690;2023-08-17T10:34:14;9.32;;;3.67;;
78887;SDS011;68276;49.326;8.690;2023-08-17T10:37:39;8.60;;;3.65;;
78887;SDS011;68276;49.326;8.690;2023-08-17T10:41:07;8.60;;;3.75;;
78887;SDS011;68276;49.326;8.690;2023-08-17T10:44:42;8.02;;;3.22;;
78887;SDS011;68276;49.326;8.690;2023-08-17T10:52:08;8.00;;;3.50;;
78887;SDS011;68276;49.326;8.690;2023-08-17T10:55:41;8.10;;;3.00;;
78887;SDS011;68276;49.326;8.690;2023-08-17T10:59:12;8.43;;;3.55;;
78887;SDS011;68276;49.326;8.690;2023-08-17T11:02:52;11.23;;;3.55;;
78887;SDS011;68276;49.326;8.690;2023-08-17T11:06:33;8.75;;;3.47;;
78887;SDS011;68276;49.326;8.690;2023-08-17T11:10:26;7.85;;;3.38;;
78887;SDS011;68276;49.326;8.690;2023-08-17T11:13:49;9.25;;;3.15;;
78887;SDS011;68276;49.326;8.690;2023-08-17T11:17:13;7.82;;;3.58;;
78887;SDS011;68276;49.326;8.690;2023-08-17T11:20:38;9.10;;;4.28;;
78887;SDS011;68276;49.326;8.690;2023-08-17T11:24:02;9.63;;;4.22;;
78887;SDS011;68276;49.326;8.690;2023-08-17T11:27:29;8.93;;;4.60;;
78887;SDS011;68276;49.326;8.690;2023-08-17T11:31:06;10.40;;;4.15;;
78887;SDS011;68276;49.326;8.690;2023-08-17T11:34:30;8.15;;;3.63;;
78887;SDS011;68276;49.326;8.690;2023-08-17T11:37:54;9.98;;;4.13;;
78887;SDS011;68276;49.326;8.690;2023-08-17T11:41:18;8.65;;;3.90;;
78887;SDS011;68276;49.326;8.690;2023-08-17T11:44:42;10.25;;;3.83;;
78887;SDS011;68276;49.326;8.690;2023-08-17T11:48:06;8.10;;;3.90;;
78887;SDS011;68276;49.326;8.690;2023-08-17T11:51:31;8.10;;;3.75;;
78887;SDS011;68276;49.326;8.690;2023-08-17T11:54:57;8.43;;;3.90;;
78887;SDS011;68276;49.326;8.690;2023-08-17T11:58:35;8.10;;;3.67;;
78887;SDS011;68276;49.326;8.690;2023-08-17T12:02:00;8.25;;;3.67;;
78887;SDS011;68276;49.326;8.690;2023-08-17T12:05:25;10.73;;;4.00;;
78887;SDS011;68276;49.326;8.690;2023-08-17T12:08:49;8.80;;;3.78;;
78887;SDS011;68276;49.326;8.690;2023-08-17T12:12:21;7.85;;;3.50;;
78887;SDS011;68276;49.326;8.690;2023-08-17T12:15:54;8.40;;;3.80;;
78887;SDS011;68276;49.326;8.690;2023-08-17T12:19:21;7.53;;;3.55;;
78887;SDS011;68276;49.326;8.690;2023-08-17T12:22:46;9.00;;;3.75;;
78887;SDS011;68276;49.326;8.690;2023-08-17T12:26:10;9.93;;;4.10;;
78887;SDS011;68276;49.326;8.690;2023-08-17T12:29:34;7.93;;;3.50;;
78887;SDS011;68276;49.326;8.690;2023-08-17T12:33:09;9.13;;;3.85;;
78887;SDS011;68276;49.326;8.690;2023-08-17T12:36:33;9.32;;;3.80;;
78887;SDS011;68276;49.326;8.690;2023-08-17T12:39:57;9.68;;;3.70;;
78887;SDS011;68276;49.326;8.690;2023-08-17T12:43:21;11.98;;;4.65;;
78887;SDS011;68276;49.326;8.690;2023-08-17T12:46:45;10.43;;;4.63;;
78887;SDS011;68276;49.326;8.690;2023-08-17T12:50:09;9.80;;;5.05;;
78887;SDS011;68276;49.326;8.690;2023-08-17T12:53:33;11.32;;;4.82;;
78887;SDS011;68276;49.326;8.690;2023-08-17T12:56:56;10.73;;;5.18;;
78887;SDS011;68276;49.326;8.690;2023-08-17T13:00:20;11.40;;;6.07;;
78887;SDS011;68276;49.326;8.690;2023-08-17T13:03:44;10.15;;;4.72;;
78887;SDS011;68276;49.326;8.690;2023-08-17T13:07:09;10.35;;;4.93;;
78887;SDS011;68276;49.326;8.690;2023-08-17T13:10:34;9.07;;;3.50;;
78887;SDS011;68276;49.326;8.690;2023-08-17T13:13:58;11.07;;;4.35;;
78887;SDS011;68276;49.326;8.690;2023-08-17T13:17:22;9.32;;;3.50;;
78887;SDS011;68276;49.326;8.690;2023-08-17T13:20:45;8.90;;;3.70;;
78887;SDS011;68276;49.326;8.690;2023-08-17T13:24:10;10.20;;;3.75;;
78887;SDS011;68276;49.326;8.690;2023-08-17T13:27:34;9.95;;;3.70;;
78887;SDS011;68276;49.326;8.690;2023-08-17T13:30:58;10.50;;;3.75;;
78887;SDS011;68276;49.326;8.690;2023-08-17T13:34:21;9.25;;;3.40;;
78887;SDS011;68276;49.326;8.690;2023-08-17T13:37:45;9.60;;;3.50;;
78887;SDS011;68276;49.326;8.690;2023-08-17T13:41:14;7.40;;;3.40;;
78887;SDS011;68276;49.326;8.690;2023-08-17T13:44:38;9.93;;;3.40;;
78887;SDS011;68276;49.326;8.690;2023-08-17T13:48:03;8.02;;;3.92;;
78887;SDS011;68276;49.326;8.690;2023-08-17T13:51:27;7.72;;;3.35;;
78887;SDS011;68276;49.326;8.690;2023-08-17T13:54:51;8.35;;;3.67;;
78887;SDS011;68276;49.326;8.690;2023-08-17T13:58:15;7.40;;;3.50;;
78887;SDS011;68276;49.326;8.690;2023-08-17T14:01:39;6.97;;;3.08;;
78887;SDS011;68276;49.326;8.690;2023-08-17T14:05:02;10.50;;;3.58;;
78887;SDS011;68276;49.326;8.690;2023-08-17T14:08:27;7.22;;;3.47;;
78887;SDS011;68276;49.326;8.690;2023-08-17T14:11:51;9.13;;;3.47;;
78887;SDS011;68276;49.326;8.690;2023-08-17T14:15:15;7.43;;;3.10;;
78887;SDS011;68276;49.326;8.690;2023-08-17T14:18:39;7.38;;;3.15;;
78887;SDS011;68276;49.326;8.690;2023-08-17T14:22:02;6.38;;;3.15;;
78887;SDS011;68276;49.326;8.690;2023-08-17T14:25:26;7.38;;;3.28;;
78887;SDS011;68276;49.326;8.690;2023-08-17T14:28:50;6.43;;;3.10;;
78887;SDS011;68276;49.326;8.690;2023-08-17T14:32:14;7.78;;;3.47;;
78887;SDS011;68276;49.326;8.690;2023-08-17T14:35:39;8.35;;;4.10;;
78887;SDS011;68276;49.326;8.690;2023-08-17T14:39:03;7.20;;;3.30;;
78887;SDS011;68276;49.326;8.690;2023-08-17T14:42:28;7.90;;;4.30;;
78887;SDS011;68276;49.326;8.690;2023-08-17T14:45:51;7.28;;;3.53;;
78887;SDS011;68276;49.326;8.690;2023-08-17T14:49:15;11.25;;;3.20;;
78887;SDS011;68276;49.326;8.690;2023-08-17T14:52:39;6.80;;;3.10;;
78887;SDS011;68276;49.326;8.690;2023-08-17T14:56:03;8.45;;;3.08;;
78887;SDS011;68276;49.326;8.690;2023-08-17T14:59:27;7.30;;;3.10;;
78887;SDS011;68276;49.326;8.690;2023-08-17T15:02:55;7.82;;;3.47;;
78887;SDS011;68276;49.326;8.690;2023-08-17T15:06:19;8.80;;;3.53;;
78887;SDS011;68276;49.326;8.690;2023-08-17T15:09:43;8.77;;;3.40;;
78887;SDS011;68276;49.326;8.690;2023-08-17T15:13:07;7.53;;;3.25;;
78887;SDS011;68276;49.326;8.690;2023-08-17T15:16:31;11.25;;;4.05;;
78887;SDS011;68276;49.326;8.690;2023-08-17T15:19:56;8.15;;;3.90;;
78887;SDS011;68276;49.326;8.690;2023-08-17T15:23:20;7.57;;;2.85;;
78887;SDS011;68276;49.326;8.690;2023-08-17T15:26:43;6.90;;;3.17;;
78887;SDS011;68276;49.326;8.690;2023-08-17T15:30:07;7.75;;;3.45;;
78887;SDS011;68276;49.326;8.690;2023-08-17T15:33:37;6.88;;;3.20;;
78887;SDS011;68276;49.326;8.690;2023-08-17T15:37:01;9.02;;;2.70;;
78887;SDS011;68276;49.326;8.690;2023-08-17T15:40:25;7.05;;;2.50;;
78887;SDS011;68276;49.326;8.690;2023-08-17T15:43:48;8.18;;;3.20;;
78887;SDS011;68276;49.326;8.690;2023-08-17T15:47:12;6.00;;;3.38;;
78887;SDS011;68276;49.326;8.690;2023-08-17T15:50:36;7.57;;;3.20;;
78887;SDS011;68276;49.326;8.690;2023-08-17T15:54:01;8.57;;;3.67;;
78887;SDS011;68276;49.326;8.690;2023-08-17T15:57:24;6.30;;;3.15;;
78887;SDS011;68276;49.326;8.690;2023-08-17T16:00:50;8.85;;;2.72;;
78887;SDS011;68276;49.326;8.690;2023-08-17T16:04:14;6.25;;;2.58;;
78887;SDS011;68276;49.326;8.690;2023-08-17T16:07:38;6.90;;;2.85;;
78887;SDS011;68276;49.326;8.690;2023-08-17T16:11:02;6.28;;;2.88;;
78887;SDS011;68276;49.326;8.690;2023-08-17T16:14:26;6.70;;;3.00;;
78887;SDS011;68276;49.326;8.690;2023-08-17T16:17:50;7.97;;;3.60;;
78887;SDS011;68276;49.326;8.690;2023-08-17T16:21:14;7.28;;;2.97;;
78887;SDS011;68276;49.326;8.690;2023-08-17T16:28:03;6.38;;;2.85;;
78887;SDS011;68276;49.326;8.690;2023-08-17T16:31:27;8.13;;;3.13;;
78887;SDS011;68276;49.326;8.690;2023-08-17T16:34:51;8.02;;;3.47;;
78887;SDS011;68276;49.326;8.690;2023-08-17T16:38:15;8.55;;;3.22;;
78887;SDS011;68276;49.326;8.690;2023-08-17T16:41:39;8.93;;;2.88;;
78887;SDS011;68276;49.326;8.690;2023-08-17T16:45:03;6.32;;;3.00;;
78887;SDS011;68276;49.326;8.690;2023-08-17T16:48:27;7.55;;;3.17;;
78887;SDS011;68276;49.326;8.690;2023-08-17T16:51:51;6.88;;;3.38;;
78887;SDS011;68276;49.326;8.690;2023-08-17T16:55:15;7.65;;;3.10;;
78887;SDS011;68276;49.326;8.690;2023-08-17T16:58:38;7.43;;;2.92;;
78887;SDS011;68276;49.326;8.690;2023-08-17T17:02:05;8.40;;;3.40;;
78887;SDS011;68276;49.326;8.690;2023-08-17T17:05:30;7.25;;;3.50;;
78887;SDS011;68276;49.326;8.690;2023-08-17T17:08:54;9.50;;;3.30;;
78887;SDS011;68276;49.326;8.690;2023-08-17T17:12:18;9.02;;;2.83;;
78887;SDS011;68276;49.326;8.690;2023-08-17T17:15:43;7.00;;;2.95;;
78887;SDS011;68276;49.326;8.690;2023-08-17T17:19:07;6.90;;;2.85;;
78887;SDS011;68276;49.326;8.690;2023-08-17T17:22:31;7.95;;;3.08;;
78887;SDS011;68276;49.326;8.690;2023-08-17T17:25:55;7.20;;;3.63;;
78887;SDS011;68276;49.326;8.690;2023-08-17T17:29:19;6.75;;;3.00;;
78887;SDS011;68276;49.326;8.690;2023-08-17T17:32:43;6.85;;;3.00;;
78887;SDS011;68276;49.326;8.690;2023-08-17T17:36:07;8.73;;;3.03;;
78887;SDS011;68276;49.326;8.690;2023-08-17T17:39:31;6.72;;;2.83;;
78887;SDS011;68276;49.326;8.690;2023-08-17T17:42:55;7.95;;;3.33;;
78887;SDS011;68276;49.326;8.690;2023-08-17T17:46:19;6.50;;;3.05;;
78887;SDS011;68276;49.326;8.690;2023-08-17T17:49:43;6.72;;;2.78;;
78887;SDS011;68276;49.326;8.690;2023-08-17T17:53:08;7.32;;;2.60;;
78887;SDS011;68276;49.326;8.690;2023-08-17T17:56:39;7.68;;;3.28;;
78887;SDS011;68276;49.326;8.690;2023-08-17T18:00:03;8.65;;;2.97;;
78887;SDS011;68276;49.326;8.690;2023-08-17T18:03:28;8.20;;;3.35;;
78887;SDS011;68276;49.326;8.690;2023-08-17T18:06:52;8.35;;;3.20;;
78887;SDS011;68276;49.326;8.690;2023-08-17T18:10:16;9.35;;;3.08;;
78887;SDS011;68276;49.326;8.690;2023-08-17T18:13:40;7.00;;;3.08;;
78887;SDS011;68276;49.326;8.690;2023-08-17T18:17:04;7.50;;;2.80;;
78887;SDS011;68276;49.326;8.690;2023-08-17T18:20:29;9.65;;;3.63;;
78887;SDS011;68276;49.326;8.690;2023-08-17T18:23:56;11.40;;;3.42;;
78887;SDS011;68276;49.326;8.690;2023-08-17T18:27:20;6.60;;;2.92;;
78887;SDS011;68276;49.326;8.690;2023-08-17T18:30:44;7.32;;;3.20;;
78887;SDS011;68276;49.326;8.690;2023-08-17T18:34:08;8.02;;;3.08;;
78887;SDS011;68276;49.326;8.690;2023-08-17T18:37:32;7.10;;;3.00;;
78887;SDS011;68276;49.326;8.690;2023-08-17T18:41:04;8.13;;;2.95;;
78887;SDS011;68276;49.326;8.690;2023-08-17T18:44:29;9.02;;;3.08;;
78887;SDS011;68276;49.326;8.690;2023-08-17T18:47:53;7.75;;;2.92;;
78887;SDS011;68276;49.326;8.690;2023-08-17T18:51:17;7.32;;;3.05;;
78887;SDS011;68276;49.326;8.690;2023-08-17T18:55:02;9.32;;;3.90;;
78887;SDS011;68276;49.326;8.690;2023-08-17T18:58:25;7.63;;;3.10;;
78887;SDS011;68276;49.326;8.690;2023-08-17T19:01:49;8.43;;;3.60;;
78887;SDS011;68276;49.326;8.690;2023-08-17T19:05:13;7.60;;;3.30;;
78887;SDS011;68276;49.326;8.690;2023-08-17T19:08:37;8.05;;;3.78;;
78887;SDS011;68276;49.326;8.690;2023-08-17T19:12:01;9.25;;;3.25;;
78887;SDS011;68276;49.326;8.690;2023-08-17T19:15:24;7.75;;;3.58;;
78887;SDS011;68276;49.326;8.690;2023-08-17T19:18:49;10.32;;;3.47;;
78887;SDS011;68276;49.326;8.690;2023-08-17T19:22:17;8.63;;;3.47;;
78887;SDS011;68276;49.326;8.690;2023-08-17T19:25:41;7.40;;;3.60;;
78887;SDS011;68276;49.326;8.690;2023-08-17T19:29:06;7.35;;;3.10;;
78887;SDS011;68276;49.326;8.690;2023-08-17T19:32:30;7.10;;;3.40;;
78887;SDS011;68276;49.326;8.690;2023-08-17T19:35:54;7.38;;;3.40;;
78887;SDS011;68276;49.326;8.690;2023-08-17T19:39:18;7.75;;;3.15;;
78887;SDS011;68276;49.326;8.690;2023-08-17T19:42:43;9.35;;;3.88;;
78887;SDS011;68276;49.326;8.690;2023-08-17T19:46:06;8.18;;;3.53;;
78887;SDS011;68276;49.326;8.690;2023-08-17T19:49:30;10.23;;;3.80;;
78887;SDS011;68276;49.326;8.690;2023-08-17T19:52:54;8.70;;;3.75;;
78887;SDS011;68276;49.326;8.690;2023-08-17T19:56:18;7.20;;;3.70;;
78887;SDS011;68276;49.326;8.690;2023-08-17T19:59:43;6.85;;;3.33;;
78887;SDS011;68276;49.326;8.690;2023-08-17T20:03:07;8.80;;;3.40;;
78887;SDS011;68276;49.326;8.690;2023-08-17T20:06:31;8.32;;;3.92;;
78887;SDS011;68276;49.326;8.690;2023-08-17T20:09:55;8.82;;;3.60;;
78887;SDS011;68276;49.326;8.690;2023-08-17T20:13:19;9.10;;;3.90;;
78887;SDS011;68276;49.326;8.690;2023-08-17T20:16:42;8.82;;;3.90;;
78887;SDS011;68276;49.326;8.690;2023-08-17T20:20:06;8.50;;;3.85;;
78887;SDS011;68276;49.326;8.690;2023-08-17T20:23:31;6.88;;;3.45;;
78887;SDS011;68276;49.326;8.690;2023-08-17T20:26:57;8.75;;;3.60;;
78887;SDS011;68276;49.326;8.690;2023-08-17T20:30:21;8.82;;;3.60;;
78887;SDS011;68276;49.326;8.690;2023-08-17T20:33:45;9.27;;;4.30;;
78887;SDS011;68276;49.326;8.690;2023-08-17T20:37:09;7.35;;;3.50;;
78887;SDS011;68276;49.326;8.690;2023-08-17T20:40:33;7.70;;;3.90;;
78887;SDS011;68276;49.326;8.690;2023-08-17T20:43:57;8.77;;;4.82;;
78887;SDS011;68276;49.326;8.690;2023-08-17T20:47:21;9.85;;;4.68;;
78887;SDS011;68276;49.326;8.690;2023-08-17T20:50:45;8.40;;;3.80;;